createdAt,value
2022-10-24T00:00:18.886Z,100603.59
2022-10-24T00:02:43.968Z,100577.06
2022-10-24T00:05:08.226Z,100570.53
2022-10-24T00:07:31.729Z,100599.47
2022-10-24T00:09:55.409Z,100612.78
2022-10-24T00:12:20.580Z,100607.06
2022-10-24T00:14:44.140Z,100586.72
2022-10-24T00:17:08.398Z,100575.88
2022-10-24T00:19:33.338Z,100570.72
2022-10-24T00:21:56.893Z,100586.47
2022-10-24T00:24:20.692Z,100606.44
2022-10-24T00:26:44.262Z,100614.94
2022-10-24T00:29:07.943Z,100630.00
2022-10-24T00:31:32.016Z,100618.22
2022-10-24T00:33:56.742Z,100624.22
2022-10-24T00:36:23.854Z,100627.75
2022-10-24T00:38:48.227Z,100617.88
2022-10-24T00:41:16.531Z,100614.34
2022-10-24T00:43:40.147Z,100612.97
2022-10-24T00:46:04.802Z,100621.28
2022-10-24T00:48:34.757Z,100626.25
2022-10-24T00:51:03.441Z,100632.66
2022-10-24T00:53:30.962Z,100644.63
2022-10-24T00:55:58.089Z,100651.88
2022-10-24T00:58:25.150Z,100646.69
2022-10-24T01:00:49.056Z,100654.13
2022-10-24T01:03:12.958Z,100660.44
2022-10-24T01:05:49.307Z,100663.09
2022-10-24T01:08:28.422Z,100670.59
2022-10-24T01:11:05.039Z,100658.06
2022-10-24T01:13:39.510Z,100659.09
2022-10-24T01:16:11.154Z,100650.03
2022-10-24T01:18:41.252Z,100640.94
2022-10-24T01:21:24.856Z,100641.16
2022-10-24T01:24:41.730Z,100635.84
2022-10-24T01:27:28.814Z,100628.25
2022-10-24T01:30:04.851Z,100624.88
2022-10-24T01:32:41.301Z,100610.03
2022-10-24T01:35:14.484Z,100606.06
2022-10-24T01:37:45.850Z,100594.50
2022-10-24T01:40:15.587Z,100602.69
2022-10-24T01:42:40.468Z,100607.94
2022-10-24T01:45:08.234Z,100604.78
2022-10-24T01:47:39.024Z,100593.50
2022-10-24T01:50:07.395Z,100596.72
2022-10-24T01:52:36.307Z,100601.38
2022-10-24T01:55:00.587Z,100603.13
2022-10-24T01:57:29.221Z,100605.44
2022-10-24T01:59:52.801Z,100596.91
2022-10-24T02:02:23.566Z,100584.09
2022-10-24T02:04:54.499Z,100579.34
2022-10-24T02:07:19.774Z,100577.56
2022-10-24T02:09:46.198Z,100578.00
2022-10-24T02:12:12.230Z,100578.34
2022-10-24T02:14:40.103Z,100573.94
2022-10-24T02:17:04.707Z,100571.28
2022-10-24T02:19:30.318Z,100560.34
2022-10-24T02:22:02.824Z,100567.16
2022-10-24T02:24:31.258Z,100557.69
2022-10-24T02:26:59.858Z,100559.19
2022-10-24T02:29:29.247Z,100567.53
2022-10-24T02:31:57.718Z,100552.69
2022-10-24T02:34:23.066Z,100547.63
2022-10-24T02:36:51.366Z,100557.56
2022-10-24T02:39:15.969Z,100558.66
2022-10-24T02:41:42.347Z,100543.25
2022-10-24T02:44:07.437Z,100545.94
2022-10-24T02:46:32.015Z,100534.59
2022-10-24T02:49:00.938Z,100532.34
2022-10-24T02:51:28.868Z,100532.88
2022-10-24T02:53:55.094Z,100549.56
2022-10-24T02:56:18.696Z,100551.00
2022-10-24T02:58:42.343Z,100551.00
2022-10-24T03:01:06.509Z,100561.09
2022-10-24T03:03:30.146Z,100562.59
2022-10-24T03:05:53.638Z,100553.47
2022-10-24T03:08:17.395Z,100553.25
2022-10-24T03:10:42.647Z,100555.25
2022-10-24T03:13:06.540Z,100553.44
2022-10-24T03:15:30.078Z,100557.06
2022-10-24T03:17:53.673Z,100557.22
2022-10-24T03:20:17.649Z,100551.91
2022-10-24T03:22:41.207Z,100557.53
2022-10-24T03:25:06.300Z,100547.56
2022-10-24T03:27:31.710Z,100551.25
2022-10-24T03:29:55.232Z,100560.47
2022-10-24T03:32:18.859Z,100565.16
2022-10-24T03:34:42.455Z,100551.38
2022-10-24T03:37:06.085Z,100553.97
2022-10-24T03:39:29.617Z,100554.41
2022-10-24T03:41:53.189Z,100549.31
2022-10-24T03:44:18.167Z,100558.38
2022-10-24T03:46:41.759Z,100554.97
2022-10-24T03:49:05.272Z,100553.03
2022-10-24T03:51:28.959Z,100556.72
2022-10-24T03:53:52.476Z,100550.06
2022-10-24T03:56:16.046Z,100558.75
2022-10-24T03:58:39.856Z,100546.84
2022-10-24T04:01:05.013Z,100552.06
2022-10-24T04:03:29.219Z,100552.53
2022-10-24T04:05:52.890Z,100558.50
2022-10-24T04:08:16.419Z,100556.09
2022-10-24T04:10:39.994Z,100556.25
2022-10-24T04:13:03.502Z,100552.56
2022-10-24T04:15:27.099Z,100554.28
2022-10-24T04:17:52.027Z,100545.63
2022-10-24T04:20:19.504Z,100539.75
2022-10-24T04:22:43.302Z,100540.91
2022-10-24T04:25:07.725Z,100540.94
2022-10-24T04:27:31.303Z,100551.16
2022-10-24T04:29:54.910Z,100541.97
2022-10-24T04:32:18.446Z,100535.03
2022-10-24T04:34:43.411Z,100537.31
2022-10-24T04:37:07.023Z,100540.69
2022-10-24T04:39:30.644Z,100547.50
2022-10-24T04:41:54.197Z,100550.66
2022-10-24T04:44:17.802Z,100551.47
2022-10-24T04:46:41.310Z,100540.84
2022-10-24T04:49:05.390Z,100544.25
2022-10-24T04:51:30.387Z,100546.25
2022-10-24T04:53:54.146Z,100541.00
2022-10-24T04:56:17.762Z,100541.97
2022-10-24T04:58:41.358Z,100550.22
2022-10-24T05:01:06.110Z,100549.50
2022-10-24T05:03:29.783Z,100557.59
2022-10-24T05:05:53.291Z,100551.50
2022-10-24T05:08:19.265Z,100562.13
2022-10-24T05:10:43.359Z,100572.63
2022-10-24T05:13:07.218Z,100568.94
2022-10-24T05:15:31.084Z,100576.75
2022-10-24T05:17:54.667Z,100567.78
2022-10-24T05:20:18.399Z,100552.94
2022-10-24T05:22:42.853Z,100553.91
2022-10-24T05:25:09.799Z,100557.91
2022-10-24T05:27:33.491Z,100561.44
2022-10-24T05:29:57.092Z,100566.81
2022-10-24T05:32:22.201Z,100569.91
2022-10-24T05:34:45.857Z,100566.97
2022-10-24T05:37:09.464Z,100565.81
2022-10-24T05:39:32.988Z,100571.22
2022-10-24T05:41:57.940Z,100568.81
2022-10-24T05:44:21.462Z,100578.88
2022-10-24T05:46:45.034Z,100576.59
2022-10-24T05:49:09.019Z,100565.81
2022-10-24T05:51:32.938Z,100563.56
2022-10-24T05:53:56.523Z,100573.91
2022-10-24T05:56:20.091Z,100567.09
2022-10-24T05:58:44.978Z,100571.19
2022-10-24T06:01:08.652Z,100561.72
2022-10-24T06:03:32.293Z,100541.56
2022-10-24T06:05:55.960Z,100559.72
2022-10-24T06:08:19.807Z,100553.63
2022-10-24T06:10:43.595Z,100537.84
2022-10-24T06:13:07.142Z,100538.00
2022-10-24T06:15:32.240Z,100533.78
2022-10-24T06:17:55.795Z,100545.53
2022-10-24T06:20:19.792Z,100543.56
2022-10-24T06:22:45.608Z,100542.84
2022-10-24T06:25:10.294Z,100542.25
2022-10-24T06:27:33.846Z,100541.56
2022-10-24T06:29:57.527Z,100535.16
2022-10-24T06:32:22.559Z,100536.19
2022-10-24T06:34:46.164Z,100539.28
2022-10-24T06:37:09.724Z,100542.25
2022-10-24T06:39:33.496Z,100540.41
2022-10-24T06:41:57.010Z,100546.91
2022-10-24T06:44:22.837Z,100538.97
2022-10-24T06:46:46.710Z,100541.81
2022-10-24T06:49:12.979Z,100548.88
2022-10-24T06:51:37.095Z,100549.00
2022-10-24T06:54:00.936Z,100551.03
2022-10-24T06:56:24.451Z,100551.81
2022-10-24T06:58:48.106Z,100553.53
2022-10-24T07:01:14.558Z,100563.31
2022-10-24T07:03:38.647Z,100567.53
2022-10-24T07:06:08.567Z,100570.06
2022-10-24T07:08:32.183Z,100569.91
2022-10-24T07:10:55.749Z,100582.22
2022-10-24T07:13:19.321Z,100581.34
2022-10-24T07:15:42.851Z,100589.41
2022-10-24T07:18:06.643Z,100595.34
2022-10-24T07:20:30.253Z,100580.56
2022-10-24T07:22:55.303Z,100588.16
2022-10-24T07:25:19.730Z,100595.59
2022-10-24T07:27:43.648Z,100588.03
2022-10-24T07:30:09.545Z,100586.75
2022-10-24T07:32:33.107Z,100593.06
2022-10-24T07:34:56.643Z,100596.25
2022-10-24T07:37:20.768Z,100590.31
2022-10-24T07:39:46.771Z,100595.16
2022-10-24T07:42:12.618Z,100588.78
2022-10-24T07:44:36.192Z,100589.09
2022-10-24T07:46:59.910Z,100579.63
2022-10-24T07:49:23.471Z,100593.13
2022-10-24T07:51:47.139Z,100602.91
2022-10-24T07:54:10.759Z,100592.56
2022-10-24T07:56:35.822Z,100594.03
2022-10-24T07:59:05.859Z,100589.34
2022-10-24T08:01:34.846Z,100587.06
2022-10-24T08:03:59.118Z,100592.47
2022-10-24T08:06:26.823Z,100589.22
2022-10-24T08:08:50.927Z,100580.25
2022-10-24T08:11:16.826Z,100583.53
2022-10-24T08:13:42.049Z,100580.00
2022-10-24T08:16:07.925Z,100589.19
2022-10-24T08:18:34.637Z,100582.56
2022-10-24T08:21:05.383Z,100579.75
2022-10-24T08:23:29.998Z,100583.78
2022-10-24T08:25:53.680Z,100579.06
2022-10-24T08:28:17.406Z,100585.13
2022-10-24T08:30:42.366Z,100582.75
2022-10-24T08:33:06.049Z,100586.97
2022-10-24T08:35:29.606Z,100578.88
2022-10-24T08:37:53.131Z,100580.31
2022-10-24T08:40:21.308Z,100577.72
2022-10-24T08:42:46.299Z,100570.75
2022-10-24T08:45:15.279Z,100579.03
2022-10-24T08:47:45.824Z,100575.09
2022-10-24T08:50:24.487Z,100570.94
2022-10-24T08:52:51.707Z,100564.59
2022-10-24T08:55:31.038Z,100565.22
2022-10-24T08:58:02.420Z,100562.41
2022-10-24T09:00:29.679Z,100556.16
2022-10-24T09:03:04.726Z,100555.50
2022-10-24T09:05:34.967Z,100549.34
2022-10-24T09:08:06.813Z,100556.22
2022-10-24T09:10:44.787Z,100562.44
2022-10-24T09:13:15.313Z,100567.88
2022-10-24T09:15:39.082Z,100566.09
2022-10-24T09:18:04.186Z,100564.59
2022-10-24T09:20:33.436Z,100572.38
2022-10-24T09:23:00.779Z,100566.34
2022-10-24T09:25:29.753Z,100560.44
2022-10-24T09:27:53.496Z,100569.78
2022-10-24T09:30:21.324Z,100559.75
2022-10-24T09:32:45.370Z,100547.50
2022-10-24T09:35:18.407Z,100559.00
2022-10-24T09:37:47.462Z,100555.63
2022-10-24T09:40:31.629Z,100563.03
2022-10-24T09:43:01.370Z,100564.88
2022-10-24T09:45:41.096Z,100567.72
2022-10-24T09:48:16.858Z,100567.34
2022-10-24T09:50:45.202Z,100560.63
2022-10-24T09:53:15.734Z,100552.56
2022-10-24T09:55:46.974Z,100551.19
2022-10-24T09:58:22.227Z,100561.06
2022-10-24T10:00:58.207Z,100556.91
2022-10-24T10:03:24.422Z,100559.63
2022-10-24T10:05:51.292Z,100563.69
2022-10-24T10:08:21.542Z,100555.53
2022-10-24T10:10:45.249Z,100556.91
2022-10-24T10:13:24.037Z,100553.75
2022-10-24T10:15:50.420Z,100551.28
2022-10-24T10:18:30.320Z,100554.03
2022-10-24T10:21:14.982Z,100542.84
2022-10-24T10:23:41.547Z,100556.56
2022-10-24T10:26:23.145Z,100536.41
2022-10-24T10:29:01.894Z,100550.41
2022-10-24T10:31:31.155Z,100548.53
2022-10-24T10:34:20.328Z,100546.16
2022-10-24T10:37:27.873Z,100543.72
2022-10-24T10:40:17.917Z,100545.13
2022-10-24T10:42:54.547Z,100543.34
2022-10-24T10:45:34.009Z,100539.59
2022-10-24T10:48:21.255Z,100541.28
2022-10-24T10:50:50.681Z,100539.94
2022-10-24T10:53:39.218Z,100542.78
2022-10-24T10:56:18.515Z,100538.72
2022-10-24T10:58:51.991Z,100538.56
2022-10-24T11:01:24.595Z,100545.41
2022-10-24T11:03:58.654Z,100537.88
2022-10-24T11:06:44.204Z,100531.31
2022-10-24T11:09:26.941Z,100534.69
2022-10-24T11:11:59.463Z,100539.00
2022-10-24T11:14:31.043Z,100535.78
2022-10-24T11:16:58.675Z,100521.63
2022-10-24T11:19:28.435Z,100524.88
2022-10-24T11:21:52.607Z,100514.06
2022-10-24T11:24:22.235Z,100524.81
2022-10-24T11:26:51.581Z,100523.03
2022-10-24T11:29:26.362Z,100522.50
2022-10-24T11:31:54.363Z,100526.81
2022-10-24T11:34:25.418Z,100521.84
2022-10-24T11:36:56.530Z,100530.41
2022-10-24T11:39:27.059Z,100535.78
2022-10-24T11:41:58.719Z,100524.75
2022-10-24T11:44:48.863Z,100530.34
2022-10-24T11:47:39.663Z,100519.69
2022-10-24T11:50:13.480Z,100524.81
2022-10-24T11:52:41.453Z,100525.13
2022-10-24T11:55:16.698Z,100526.66
2022-10-24T11:57:41.021Z,100525.31
2022-10-24T12:00:06.184Z,100519.00
2022-10-24T12:03:37.600Z,100511.59
2022-10-24T12:06:18.306Z,100503.13
2022-10-24T12:09:19.881Z,100492.53
2022-10-24T12:12:01.263Z,100502.22
2022-10-24T12:14:56.765Z,100496.50
2022-10-24T12:17:51.396Z,100503.44
2022-10-24T12:20:19.301Z,100494.38
2022-10-24T12:22:45.677Z,100483.88
2022-10-24T12:25:23.622Z,100478.09
2022-10-24T12:27:56.418Z,100483.19
2022-10-24T12:30:24.197Z,100488.53
2022-10-24T12:32:51.127Z,100479.00
2022-10-24T12:35:48.151Z,100472.97
2022-10-24T12:38:20.437Z,100465.91
2022-10-24T12:40:55.635Z,100466.00
2022-10-24T12:43:33.907Z,100470.47
2022-10-24T12:46:00.250Z,100465.09
2022-10-24T12:48:35.906Z,100466.44
2022-10-24T12:51:32.647Z,100470.84
2022-10-24T12:54:16.887Z,100468.28
2022-10-24T12:57:23.815Z,100464.38
2022-10-24T12:59:50.904Z,100464.69
2022-10-24T13:02:41.193Z,100460.59
2022-10-24T13:05:22.862Z,100471.00
2022-10-24T13:07:59.747Z,100467.19
2022-10-24T13:10:46.479Z,100465.09
2022-10-24T13:13:34.032Z,100461.59
2022-10-24T13:16:05.068Z,100463.03
2022-10-24T13:18:44.201Z,100464.28
2022-10-24T13:21:18.829Z,100469.09
2022-10-24T13:23:44.518Z,100466.28
2022-10-24T13:26:08.520Z,100464.19
2022-10-24T13:28:43.396Z,100462.59
2022-10-24T13:31:47.783Z,100463.53
2022-10-24T13:34:44.074Z,100467.72
2022-10-24T13:37:16.134Z,100463.94
2022-10-24T13:39:48.295Z,100465.69
2022-10-24T13:42:28.190Z,100475.22
2022-10-24T13:44:54.704Z,100476.16
2022-10-24T13:47:24.412Z,100480.59
2022-10-24T13:49:57.678Z,100493.78
2022-10-24T13:52:27.700Z,100484.97
2022-10-24T13:54:58.548Z,100493.00
2022-10-24T13:57:33.687Z,100485.34
2022-10-24T14:00:00.138Z,100489.56
2022-10-24T14:02:32.127Z,100489.56
2022-10-24T14:04:58.314Z,100493.41
2022-10-24T14:07:27.575Z,100499.28
2022-10-24T14:09:59.721Z,100507.81
2022-10-24T14:12:28.133Z,100503.56
2022-10-24T14:14:53.700Z,100498.88
2022-10-24T14:17:24.095Z,100497.50
2022-10-24T14:19:55.818Z,100499.56
2022-10-24T14:22:25.720Z,100503.53
2022-10-24T14:24:50.578Z,100506.72
2022-10-24T14:27:15.612Z,100504.84
2022-10-24T14:29:39.231Z,100505.75
2022-10-24T14:32:07.812Z,100505.22
2022-10-24T14:34:36.128Z,100505.59
2022-10-24T14:37:05.582Z,100495.19
2022-10-24T14:39:29.488Z,100496.38
2022-10-24T14:41:54.399Z,100509.38
2022-10-24T14:44:20.514Z,100510.44
2022-10-24T14:46:46.076Z,100506.66
2022-10-24T14:49:28.635Z,100506.91
2022-10-24T14:51:54.263Z,100505.06
2022-10-24T14:54:21.527Z,100511.56
2022-10-24T14:56:45.348Z,100513.63
2022-10-24T14:59:23.561Z,100512.78
2022-10-24T15:01:58.150Z,100508.56
2022-10-24T15:04:32.698Z,100506.34
2022-10-24T15:06:58.258Z,100507.75
2022-10-24T15:09:23.187Z,100506.88
2022-10-24T15:11:48.709Z,100506.97
2022-10-24T15:14:35.287Z,100499.13
2022-10-24T15:17:01.395Z,100506.34
2022-10-24T15:19:24.963Z,100510.47
2022-10-24T15:21:49.059Z,100512.47
2022-10-24T15:24:25.217Z,100512.72
2022-10-24T15:26:48.879Z,100503.06
2022-10-24T15:29:21.948Z,100497.94
2022-10-24T15:31:48.263Z,100502.16
2022-10-24T15:34:17.213Z,100504.91
2022-10-24T15:36:43.364Z,100508.34
2022-10-24T15:39:14.351Z,100507.72
2022-10-24T15:41:40.462Z,100507.66
2022-10-24T15:44:07.524Z,100506.16
2022-10-24T15:46:31.527Z,100506.50
2022-10-24T15:48:55.318Z,100506.69
2022-10-24T15:51:21.265Z,100508.50
2022-10-24T15:53:45.448Z,100514.22
2022-10-24T15:56:11.216Z,100521.97
2022-10-24T15:58:36.225Z,100513.53
2022-10-24T16:01:00.740Z,100513.09
2022-10-24T16:03:25.454Z,100524.78
2022-10-24T16:05:53.448Z,100521.81
2022-10-24T16:08:18.861Z,100525.31
2022-10-24T16:10:42.906Z,100529.22
2022-10-24T16:13:06.473Z,100532.31
2022-10-24T16:15:36.649Z,100529.06
2022-10-24T16:18:00.526Z,100526.63
2022-10-24T16:20:24.067Z,100536.03
2022-10-24T16:22:47.868Z,100539.75
2022-10-24T16:25:18.154Z,100530.25
2022-10-24T16:27:41.874Z,100547.69
2022-10-24T16:30:06.391Z,100545.16
2022-10-24T16:32:31.363Z,100546.16
2022-10-24T16:34:56.891Z,100549.44
2022-10-24T16:37:21.701Z,100545.97
2022-10-24T16:39:45.220Z,100553.22
2022-10-24T16:42:08.901Z,100560.00
2022-10-24T16:44:35.453Z,100561.75
2022-10-24T16:46:59.015Z,100569.06
2022-10-24T16:49:24.310Z,100557.97
2022-10-24T16:51:47.933Z,100570.38
2022-10-24T16:54:11.521Z,100572.81
2022-10-24T16:56:35.114Z,100579.09
2022-10-24T16:58:58.700Z,100570.94
2022-10-24T17:01:23.214Z,100571.97
2022-10-24T17:03:47.047Z,100568.06
2022-10-24T17:06:13.371Z,100574.34
2022-10-24T17:08:37.151Z,100578.75
2022-10-24T17:11:01.063Z,100576.72
2022-10-24T17:13:25.448Z,100575.28
2022-10-24T17:15:49.146Z,100585.97
2022-10-24T17:18:13.579Z,100577.66
2022-10-24T17:20:37.263Z,100575.16
2022-10-24T17:23:05.682Z,100574.75
2022-10-24T17:25:30.720Z,100574.97
2022-10-24T17:27:56.156Z,100571.84
2022-10-24T17:30:22.957Z,100578.91
2022-10-24T17:32:47.216Z,100571.78
2022-10-24T17:35:14.713Z,100570.41
2022-10-24T17:37:52.871Z,100581.78
2022-10-24T17:40:21.103Z,100586.06
2022-10-24T17:42:47.990Z,100578.22
2022-10-24T17:45:16.935Z,100584.50
2022-10-24T17:47:40.752Z,100577.94
2022-10-24T17:50:04.476Z,100577.25
2022-10-24T17:52:27.996Z,100574.56
2022-10-24T17:54:52.554Z,100575.94
2022-10-24T17:57:17.526Z,100583.75
2022-10-24T17:59:41.133Z,100586.44
2022-10-24T18:02:04.847Z,100589.03
2022-10-24T18:04:28.623Z,100592.41
2022-10-24T18:06:52.227Z,100588.69
2022-10-24T18:09:15.798Z,100595.00
2022-10-24T18:11:40.103Z,100599.72
2022-10-24T18:14:05.135Z,100591.75
2022-10-24T18:16:30.621Z,100596.31
2022-10-24T18:18:54.479Z,100602.31
2022-10-24T18:21:21.207Z,100601.09
2022-10-24T18:23:44.967Z,100605.16
2022-10-24T18:26:09.425Z,100603.97
2022-10-24T18:28:32.962Z,100598.38
2022-10-24T18:30:57.854Z,100611.97
2022-10-24T18:33:21.386Z,100608.38
2022-10-24T18:35:44.923Z,100603.81
2022-10-24T18:38:08.479Z,100610.78
2022-10-24T18:40:33.583Z,100612.59
2022-10-24T18:43:04.252Z,100612.63
2022-10-24T18:45:29.769Z,100615.00
2022-10-24T18:47:55.914Z,100614.34
2022-10-24T18:50:23.411Z,100612.28
2022-10-24T18:52:51.990Z,100613.66
2022-10-24T18:55:21.023Z,100604.13
2022-10-24T18:57:45.477Z,100616.69
2022-10-24T19:00:10.963Z,100612.81
2022-10-24T19:02:40.517Z,100606.19
2022-10-24T19:05:17.699Z,100609.59
2022-10-24T19:07:42.437Z,100610.75
2022-10-24T19:10:06.958Z,100604.13
2022-10-24T19:12:30.807Z,100612.28
2022-10-24T19:14:54.946Z,100609.72
2022-10-24T19:17:18.574Z,100615.19
2022-10-24T19:19:43.426Z,100617.06
2022-10-24T19:22:08.431Z,100619.38
2022-10-24T19:24:32.203Z,100611.97
2022-10-24T19:26:55.796Z,100606.69
2022-10-24T19:29:19.714Z,100612.13
2022-10-24T19:31:43.318Z,100608.25
2022-10-24T19:34:06.842Z,100618.38
2022-10-24T19:36:31.905Z,100620.75
2022-10-24T19:38:58.010Z,100619.25
2022-10-24T19:41:21.568Z,100612.66
2022-10-24T19:43:45.078Z,100620.41
2022-10-24T19:46:24.695Z,100624.13
2022-10-24T19:48:49.634Z,100625.31
2022-10-24T19:51:14.501Z,100622.97
2022-10-24T19:53:40.266Z,100619.53
2022-10-24T19:56:11.259Z,100619.91
2022-10-24T19:58:35.224Z,100616.00
2022-10-24T20:01:06.642Z,100618.03
2022-10-24T20:03:30.226Z,100630.06
2022-10-24T20:05:53.739Z,100626.47
2022-10-24T20:08:17.307Z,100627.34
2022-10-24T20:10:40.882Z,100630.25
2022-10-24T20:13:05.863Z,100634.63
2022-10-24T20:15:29.419Z,100624.09
2022-10-24T20:17:53.007Z,100637.50
2022-10-24T20:20:18.596Z,100635.13
2022-10-24T20:22:42.527Z,100633.56
2022-10-24T20:25:07.332Z,100635.63
2022-10-24T20:27:30.900Z,100635.59
2022-10-24T20:29:55.875Z,100648.13
2022-10-24T20:32:20.269Z,100640.03
2022-10-24T20:34:43.855Z,100638.47
2022-10-24T20:37:08.274Z,100644.28
2022-10-24T20:39:31.815Z,100647.78
2022-10-24T20:41:55.422Z,100647.63
2022-10-24T20:44:19.011Z,100650.13
2022-10-24T20:46:43.961Z,100657.69
2022-10-24T20:49:07.602Z,100652.66
2022-10-24T20:51:31.247Z,100651.00
2022-10-24T20:53:54.963Z,100656.88
2022-10-24T20:56:22.593Z,100661.88
2022-10-24T20:58:47.039Z,100662.56
2022-10-24T21:01:13.534Z,100665.16
2022-10-24T21:03:39.177Z,100669.72
2022-10-24T21:06:02.807Z,100668.88
2022-10-24T21:08:26.311Z,100669.53
2022-10-24T21:10:51.142Z,100677.16
2022-10-24T21:13:14.658Z,100679.69
2022-10-24T21:15:38.279Z,100680.66
2022-10-24T21:18:01.797Z,100678.78
2022-10-24T21:20:26.917Z,100689.50
2022-10-24T21:22:50.438Z,100685.56
2022-10-24T21:25:14.057Z,100683.84
2022-10-24T21:27:37.583Z,100687.53
2022-10-24T21:30:01.179Z,100689.41
2022-10-24T21:32:24.725Z,100694.31
2022-10-24T21:34:48.336Z,100685.91
2022-10-24T21:37:13.267Z,100696.34
2022-10-24T21:39:36.823Z,100697.09
2022-10-24T21:42:00.392Z,100695.50
2022-10-24T21:44:24.233Z,100692.97
2022-10-24T21:46:47.750Z,100701.66
2022-10-24T21:49:12.330Z,100700.25
2022-10-24T21:51:39.230Z,100700.03
2022-10-24T21:54:07.132Z,100709.16
2022-10-24T21:56:33.422Z,100708.81
2022-10-24T21:58:59.810Z,100701.97
2022-10-24T22:01:26.407Z,100709.41
2022-10-24T22:03:50.431Z,100712.97
2022-10-24T22:06:16.922Z,100712.75
2022-10-24T22:08:41.007Z,100710.81
2022-10-24T22:11:09.589Z,100712.09
2022-10-24T22:13:33.788Z,100711.56
2022-10-24T22:15:57.810Z,100718.16
2022-10-24T22:18:21.943Z,100718.56
2022-10-24T22:20:45.483Z,100720.28
2022-10-24T22:23:09.042Z,100712.81
2022-10-24T22:25:32.578Z,100719.25
2022-10-24T22:27:57.566Z,100719.09
2022-10-24T22:30:21.079Z,100718.47
2022-10-24T22:32:45.386Z,100727.13
2022-10-24T22:35:12.348Z,100724.19
2022-10-24T22:37:36.356Z,100731.50
2022-10-24T22:40:00.623Z,100731.09
2022-10-24T22:42:24.795Z,100733.88
2022-10-24T22:44:51.006Z,100739.88
2022-10-24T22:47:44.740Z,100743.00
2022-10-24T22:50:21.858Z,100744.22
2022-10-24T22:52:46.586Z,100744.56
2022-10-24T22:55:19.945Z,100741.84
2022-10-24T22:57:44.815Z,100746.78
2022-10-24T23:00:12.401Z,100753.03
2022-10-24T23:02:41.635Z,100748.72
2022-10-24T23:05:08.020Z,100757.00
2022-10-24T23:07:42.971Z,100761.16
2022-10-24T23:10:10.912Z,100761.44
2022-10-24T23:12:35.335Z,100760.91
2022-10-24T23:14:59.676Z,100764.41
2022-10-24T23:17:28.969Z,100765.22
2022-10-24T23:19:53.740Z,100765.31
2022-10-24T23:22:24.766Z,100761.06
2022-10-24T23:24:49.347Z,100763.13
2022-10-24T23:27:34.367Z,100767.97
2022-10-24T23:29:58.852Z,100761.16
2022-10-24T23:32:27.428Z,100757.78
2022-10-24T23:34:52.582Z,100761.22
2022-10-24T23:37:28.396Z,100765.53
2022-10-24T23:39:52.680Z,100765.81
2022-10-24T23:42:17.067Z,100766.53
2022-10-24T23:44:41.350Z,100770.41
2022-10-24T23:47:14.320Z,100768.00
2022-10-24T23:49:48.627Z,100771.91
2022-10-24T23:52:21.834Z,100760.38
2022-10-24T23:54:46.223Z,100764.66
2022-10-24T23:57:17.684Z,100766.53
2022-10-24T23:59:41.237Z,100764.25
